Time;durP1;ratioP1;P1;durP2;ratioP2;P2;SDS_P1;SDS_P2;PMS_P1;PMS_P2;Temp;Humidity;BMP_temperature;BMP_pressure;BME280_temperature;BME280_humidity;BME280_pressure;Samples;Min_cycle;Max_cycle;Signal;HPM_P1;HPM_P2
2022/03/31 00:02:19;;;;;;;40.88;37.28;;;9.30;86.70;;;;;;5052781;28;20295;-74
2022/03/31 00:04:46;;;;;;;39.30;35.83;;;9.30;86.70;;;;;;5052308;28;20308;-74
2022/03/31 00:07:13;;;;;;;38.72;35.55;;;9.30;86.50;;;;;;5052146;28;20207;-74
2022/03/31 00:09:41;;;;;;;38.55;35.35;;;9.30;86.70;;;;;;5052442;28;20204;-74
2022/03/31 00:12:09;;;;;;;39.38;35.83;;;9.30;86.60;;;;;;5052425;28;20219;-73
2022/03/31 00:14:36;;;;;;;39.42;35.80;;;9.40;86.50;;;;;;5052410;28;20197;-73
2022/03/31 00:17:03;;;;;;;38.78;35.60;;;9.40;87.30;;;;;;5052431;28;20284;-73
2022/03/31 00:19:30;;;;;;;42.58;38.92;;;9.40;87.60;;;;;;5052126;28;20616;-74
2022/03/31 00:21:57;;;;;;;41.75;38.15;;;9.30;88.10;;;;;;5052377;28;20214;-74
2022/03/31 00:24:24;;;;;;;39.30;35.95;;;9.30;87.60;;;;;;5052297;28;20215;-74
2022/03/31 00:26:52;;;;;;;40.65;37.05;;;9.40;86.90;;;;;;5052354;28;20201;-74
2022/03/31 00:29:19;;;;;;;39.67;36.00;;;9.40;86.80;;;;;;5052157;28;20292;-74
2022/03/31 00:31:46;;;;;;;39.60;36.10;;;9.40;87.00;;;;;;5052062;28;20200;-74
2022/03/31 00:34:13;;;;;;;39.33;35.75;;;9.30;87.20;;;;;;5052259;28;20222;-73
2022/03/31 00:36:40;;;;;;;39.53;36.22;;;9.30;86.80;;;;;;5052311;28;20202;-74
2022/03/31 00:41:53;;;;;;;41.20;37.58;;;9.40;86.50;;;;;;5052276;28;20684;-74
2022/03/31 00:44:20;;;;;;;36.95;33.88;;;9.30;85.80;;;;;;5054166;28;20233;-74
2022/03/31 00:46:49;;;;;;;37.97;34.97;;;9.20;85.20;;;;;;5056154;28;20286;-73
2022/03/31 00:49:16;;;;;;;37.03;33.92;;;9.10;84.70;;;;;;5055875;28;20202;-73
2022/03/31 00:51:43;;;;;;;37.25;34.22;;;9.10;85.20;;;;;;5055931;28;20198;-74
2022/03/31 00:54:10;;;;;;;36.67;33.38;;;9.10;84.50;;;;;;5056174;28;20201;-73
2022/03/31 00:56:37;;;;;;;36.67;33.78;;;9.00;84.10;;;;;;5056054;28;20208;-73
2022/03/31 00:59:07;;;;;;;36.58;33.72;;;9.00;84.10;;;;;;5055849;28;20655;-73
2022/03/31 01:01:34;;;;;;;36.40;33.50;;;9.00;84.10;;;;;;5055663;28;20215;-73
2022/03/31 01:04:01;;;;;;;36.85;33.80;;;9.00;83.80;;;;;;5055913;28;20229;-73
2022/03/31 01:06:28;;;;;;;36.10;33.25;;;8.90;83.80;;;;;;5055607;28;20331;-74
2022/03/31 01:08:55;;;;;;;36.28;33.58;;;8.90;84.40;;;;;;5055766;28;20294;-73
2022/03/31 01:11:22;;;;;;;37.55;34.63;;;8.90;84.80;;;;;;5055638;28;20199;-73
2022/03/31 01:13:50;;;;;;;35.92;33.03;;;8.90;85.10;;;;;;5055531;28;20215;-73
2022/03/31 01:16:18;;;;;;;35.53;32.63;;;8.80;84.70;;;;;;5055700;28;20288;-73
2022/03/31 01:18:45;;;;;;;35.08;32.30;;;8.90;84.40;;;;;;5055644;28;20501;-73
2022/03/31 01:21:12;;;;;;;35.40;32.60;;;9.00;84.00;;;;;;5055607;28;20691;-74
2022/03/31 01:26:21;;;;;;;34.90;32.00;;;9.00;84.70;;;;;;5055576;28;20298;-74
2022/03/31 01:28:48;;;;;;;35.42;32.63;;;9.00;84.50;;;;;;5055417;28;20281;-74
2022/03/31 01:31:15;;;;;;;37.20;34.13;;;8.90;84.50;;;;;;5055404;28;20204;-74
2022/03/31 01:33:42;;;;;;;34.70;31.90;;;8.90;85.10;;;;;;5055403;28;20218;-74
2022/03/31 01:36:09;;;;;;;34.40;31.70;;;8.90;85.10;;;;;;5055256;28;20298;-73
2022/03/31 01:38:36;;;;;;;37.63;34.40;;;8.90;84.90;;;;;;5055178;28;20194;-74
2022/03/31 01:41:05;;;;;;;34.90;32.17;;;8.90;84.60;;;;;;5055187;28;20284;-73
2022/03/31 01:43:32;;;;;;;37.50;34.15;;;8.90;84.50;;;;;;5055064;28;20250;-73
2022/03/31 01:45:59;;;;;;;35.92;33.03;;;8.80;84.60;;;;;;5055050;28;20226;-74
2022/03/31 01:48:25;;;;;;;36.83;33.83;;;8.90;84.50;;;;;;5055019;28;20212;-74
2022/03/31 01:50:52;;;;;;;35.17;32.38;;;8.80;84.70;;;;;;5054786;28;20212;-74
2022/03/31 01:53:19;;;;;;;35.05;32.40;;;8.80;84.80;;;;;;5054959;28;20215;-73
2022/03/31 01:55:46;;;;;;;35.30;32.40;;;8.80;84.60;;;;;;5054427;28;20205;-73
2022/03/31 01:58:14;;;;;;;35.95;33.22;;;8.80;85.20;;;;;;5054860;28;20688;-74
2022/03/31 02:00:41;;;;;;;34.22;31.55;;;8.70;85.70;;;;;;5054513;28;20194;-74
2022/03/31 02:03:08;;;;;;;35.15;32.30;;;8.70;85.00;;;;;;5054688;28;20586;-74
2022/03/31 02:05:35;;;;;;;33.15;30.48;;;8.70;84.90;;;;;;5054427;28;20581;-74
2022/03/31 02:08:03;;;;;;;34.97;32.20;;;8.80;84.70;;;;;;5054990;28;20249;-73
2022/03/31 02:10:29;;;;;;;34.22;31.67;;;8.80;84.70;;;;;;5054492;28;20200;-74
2022/03/31 02:12:57;;;;;;;35.65;32.78;;;8.80;84.70;;;;;;5054469;28;20224;-73
2022/03/31 02:15:26;;;;;;;36.60;33.38;;;8.80;84.70;;;;;;5054640;28;20194;-74
2022/03/31 02:17:55;;;;;;;36.55;33.65;;;8.80;84.40;;;;;;5054437;28;20198;-74
2022/03/31 02:20:22;;;;;;;34.67;31.95;;;8.80;84.30;;;;;;5054265;28;20679;-73
2022/03/31 02:22:49;;;;;;;34.70;31.85;;;8.70;84.40;;;;;;5054460;28;20288;-73
2022/03/31 02:25:15;;;;;;;35.47;32.75;;;8.70;84.00;;;;;;5054298;28;20227;-74
2022/03/31 02:27:42;;;;;;;36.90;33.90;;;8.60;83.80;;;;;;5054358;28;20206;-74
2022/03/31 02:30:10;;;;;;;35.03;32.15;;;8.60;82.90;;;;;;5054072;28;20198;-74
2022/03/31 02:32:38;;;;;;;35.85;33.03;;;8.60;83.50;;;;;;5054072;28;20222;-74
2022/03/31 02:35:06;;;;;;;36.45;33.55;;;8.50;83.70;;;;;;5054106;28;20239;-74
2022/03/31 02:37:33;;;;;;;35.53;32.70;;;8.50;84.00;;;;;;5054048;28;20290;-74
2022/03/31 02:40:00;;;;;;;35.17;32.42;;;8.40;83.40;;;;;;5053972;28;20199;-73
2022/03/31 02:42:27;;;;;;;35.25;32.45;;;8.30;83.00;;;;;;5053985;28;20230;-74
2022/03/31 02:44:54;;;;;;;35.00;32.40;;;8.30;83.20;;;;;;5054023;28;20198;-74
2022/03/31 02:47:20;;;;;;;35.53;32.72;;;8.30;83.10;;;;;;5053890;28;20202;-73
2022/03/31 02:49:49;;;;;;;36.63;33.88;;;8.30;83.10;;;;;;5053709;28;20284;-73
2022/03/31 02:52:16;;;;;;;36.67;33.75;;;8.30;83.20;;;;;;5053760;28;20227;-73
2022/03/31 02:57:27;;;;;;;36.85;33.85;;;8.50;83.80;;;;;;5053846;28;20289;-73
2022/03/31 02:59:54;;;;;;;37.22;34.42;;;8.60;83.20;;;;;;5053356;28;20290;-74
2022/03/31 03:02:20;;;;;;;36.88;33.90;;;8.50;82.90;;;;;;5053581;28;20215;-73
2022/03/31 03:04:50;;;;;;;36.95;34.10;;;8.40;83.10;;;;;;5053541;28;20287;-74
2022/03/31 03:07:16;;;;;;;37.70;34.78;;;8.30;83.70;;;;;;5052471;28;20221;-74
2022/03/31 03:09:43;;;;;;;37.58;34.58;;;8.20;84.00;;;;;;5053449;28;20227;-74
2022/03/31 03:12:12;;;;;;;38.33;35.03;;;8.20;84.10;;;;;;5053349;28;20218;-73
2022/03/31 03:14:40;;;;;;;38.55;35.38;;;8.10;84.20;;;;;;5053344;28;20194;-73
2022/03/31 03:17:07;;;;;;;39.78;36.47;;;8.10;84.20;;;;;;5053379;28;20208;-74
2022/03/31 03:19:34;;;;;;;39.58;36.38;;;7.80;85.00;;;;;;5053176;28;20206;-74
2022/03/31 03:22:03;;;;;;;38.55;35.53;;;7.80;85.50;;;;;;5053307;28;20219;-74
2022/03/31 03:24:30;;;;;;;40.47;37.28;;;7.80;85.40;;;;;;5053124;28;20201;-73
2022/03/31 03:26:57;;;;;;;39.88;36.53;;;7.70;85.90;;;;;;5053057;28;20221;-73
2022/03/31 03:29:24;;;;;;;41.53;38.33;;;7.80;85.50;;;;;;5053071;28;20195;-74
2022/03/31 03:31:52;;;;;;;40.35;36.85;;;7.70;85.50;;;;;;5053559;28;20198;-74
2022/03/31 03:34:19;;;;;;;42.80;39.47;;;7.40;86.80;;;;;;5053205;28;20195;-73
2022/03/31 03:36:46;;;;;;;37.78;34.67;;;7.50;86.50;;;;;;5053027;28;20207;-73
2022/03/31 03:39:14;;;;;;;39.83;36.58;;;7.60;86.60;;;;;;5052744;28;20247;-74
2022/03/31 03:41:41;;;;;;;40.15;36.85;;;7.60;86.60;;;;;;5052855;28;20567;-73
2022/03/31 03:44:08;;;;;;;39.78;36.25;;;7.60;86.40;;;;;;5052881;28;20204;-73
2022/03/31 03:46:35;;;;;;;41.05;37.58;;;7.40;86.90;;;;;;5052764;28;20216;-74
2022/03/31 03:49:02;;;;;;;42.15;38.83;;;7.40;87.10;;;;;;5052717;28;20528;-73
2022/03/31 03:51:29;;;;;;;41.38;37.97;;;7.40;87.20;;;;;;5052724;28;20626;-74
2022/03/31 03:53:56;;;;;;;41.13;37.88;;;7.40;87.10;;;;;;5052576;28;20218;-74
2022/03/31 03:56:24;;;;;;;41.35;38.05;;;7.40;87.10;;;;;;5052924;28;20198;-74
2022/03/31 03:58:51;;;;;;;40.13;36.85;;;7.40;87.50;;;;;;5052670;28;20230;-74
2022/03/31 04:01:19;;;;;;;40.85;37.70;;;7.40;87.30;;;;;;5052154;28;20662;-73
2022/03/31 04:03:46;;;;;;;39.78;36.47;;;7.30;87.20;;;;;;5052561;28;20234;-74
2022/03/31 04:06:13;;;;;;;40.58;37.17;;;7.30;87.40;;;;;;5052291;28;20257;-73
2022/03/31 04:08:40;;;;;;;39.63;36.53;;;7.40;86.90;;;;;;5052514;28;20654;-74
2022/03/31 04:11:07;;;;;;;37.75;34.60;;;7.40;86.70;;;;;;5052440;28;20204;-73
2022/03/31 04:13:35;;;;;;;38.83;35.65;;;7.40;86.60;;;;;;5052595;28;20308;-73
2022/03/31 04:16:03;;;;;;;38.92;35.83;;;7.40;86.90;;;;;;5052601;28;20289;-73
2022/03/31 04:18:30;;;;;;;38.30;35.10;;;7.50;86.20;;;;;;5052187;28;20201;-73
2022/03/31 04:21:01;;;;;;;39.47;36.50;;;7.50;86.60;;;;;;5052214;28;20201;-74
2022/03/31 04:23:28;;;;;;;38.90;35.90;;;7.50;86.00;;;;;;5052415;28;20218;-73
2022/03/31 04:25:55;;;;;;;37.90;34.80;;;7.40;85.70;;;;;;5052278;28;20231;-74
2022/03/31 04:28:22;;;;;;;39.72;36.80;;;7.50;85.30;;;;;;5052370;28;20203;-74
2022/03/31 04:30:50;;;;;;;39.03;35.95;;;7.40;85.40;;;;;;5052085;28;20238;-74
2022/03/31 04:33:17;;;;;;;41.60;36.05;;;7.40;85.50;;;;;;5052279;28;20303;-73
2022/03/31 04:35:44;;;;;;;42.17;38.85;;;7.10;86.80;;;;;;5052388;28;20309;-73
2022/03/31 04:38:11;;;;;;;40.78;37.33;;;7.00;87.70;;;;;;5052269;28;20207;-74
2022/03/31 04:40:38;;;;;;;42.17;38.67;;;6.90;87.90;;;;;;5052172;28;20213;-74
2022/03/31 04:43:05;;;;;;;40.72;37.53;;;6.90;88.00;;;;;;5052249;28;20781;-73
2022/03/31 04:45:32;;;;;;;42.22;38.78;;;7.00;87.90;;;;;;5052049;28;20198;-73
2022/03/31 04:48:00;;;;;;;41.17;37.85;;;7.10;87.80;;;;;;5052239;28;20205;-73
2022/03/31 04:50:27;;;;;;;41.83;38.38;;;6.70;88.40;;;;;;5052018;28;20581;-73
2022/03/31 04:52:54;;;;;;;42.95;39.22;;;6.60;89.10;;;;;;5052090;28;20216;-73
2022/03/31 04:55:21;;;;;;;41.90;38.42;;;6.70;89.40;;;;;;5052146;28;20198;-73
2022/03/31 04:57:48;;;;;;;41.67;38.05;;;6.60;89.20;;;;;;5052006;28;20193;-73
2022/03/31 05:00:15;;;;;;;40.95;37.45;;;6.60;89.50;;;;;;5051822;28;20288;-73
2022/03/31 05:02:42;;;;;;;43.10;39.83;;;6.70;89.20;;;;;;5052116;28;20225;-73
2022/03/31 05:05:12;;;;;;;40.22;36.83;;;6.80;89.00;;;;;;5052051;28;20212;-73
2022/03/31 05:07:40;;;;;;;43.45;39.85;;;6.90;88.00;;;;;;5051932;28;20645;-73
2022/03/31 05:10:08;;;;;;;43.10;39.50;;;6.90;87.50;;;;;;5051865;28;20245;-73
2022/03/31 05:12:35;;;;;;;40.22;36.80;;;6.70;87.80;;;;;;5051983;28;20304;-73
2022/03/31 05:15:03;;;;;;;40.55;37.15;;;6.60;88.80;;;;;;5051899;28;20202;-73
2022/03/31 05:17:33;;;;;;;39.70;36.55;;;6.60;89.10;;;;;;5051920;28;20194;-73
2022/03/31 05:20:05;;;;;;;40.90;37.67;;;6.60;88.60;;;;;;5051717;28;20195;-73
2022/03/31 05:22:35;;;;;;;38.72;35.67;;;6.60;88.50;;;;;;5051799;28;20304;-73
2022/03/31 05:25:02;;;;;;;38.60;35.50;;;6.60;88.00;;;;;;5052026;28;20213;-73
2022/03/31 05:27:29;;;;;;;39.80;36.60;;;6.70;87.90;;;;;;5051734;28;20582;-73
2022/03/31 05:29:57;;;;;;;38.95;35.90;;;6.70;87.70;;;;;;5052891;28;20202;-73
2022/03/31 05:32:24;;;;;;;39.08;36.08;;;6.90;87.00;;;;;;5055379;28;20271;-73
2022/03/31 05:34:51;;;;;;;38.80;35.88;;;6.90;86.80;;;;;;5055337;28;20738;-73
2022/03/31 05:37:18;;;;;;;41.85;38.33;;;7.00;86.30;;;;;;5055284;28;20203;-73
2022/03/31 05:39:46;;;;;;;39.78;36.67;;;7.10;86.00;;;;;;5055248;28;20751;-73
2022/03/31 05:42:13;;;;;;;42.17;38.78;;;6.80;86.90;;;;;;5055307;28;20244;-73
2022/03/31 05:44:40;;;;;;;39.85;36.85;;;6.70;87.40;;;;;;5055124;28;20290;-73
2022/03/31 05:47:08;;;;;;;39.45;36.15;;;6.70;87.50;;;;;;5054969;28;20308;-73
2022/03/31 05:49:35;;;;;;;41.90;38.65;;;6.90;86.70;;;;;;5054893;28;20193;-74
2022/03/31 05:52:01;;;;;;;40.47;37.03;;;7.00;86.50;;;;;;5055011;28;20217;-74
2022/03/31 05:54:30;;;;;;;40.78;37.67;;;6.90;86.90;;;;;;5055102;28;20574;-73
2022/03/31 05:56:59;;;;;;;41.17;37.85;;;6.90;86.90;;;;;;5054822;28;20200;-73
2022/03/31 05:59:26;;;;;;;44.85;41.35;;;6.80;87.10;;;;;;5054827;28;20658;-73
2022/03/31 06:01:53;;;;;;;41.90;38.53;;;7.00;87.10;;;;;;5054630;28;20202;-73
2022/03/31 06:04:21;;;;;;;43.53;40.08;;;7.00;86.20;;;;;;5054640;28;20745;-73
2022/03/31 06:06:48;;;;;;;42.15;38.72;;;7.00;86.10;;;;;;5054525;28;20222;-73
2022/03/31 06:09:15;;;;;;;42.40;38.90;;;6.70;87.00;;;;;;5054488;28;20201;-73
2022/03/31 06:11:43;;;;;;;41.63;38.53;;;6.80;87.40;;;;;;5054604;28;20658;-73
2022/03/31 06:14:12;;;;;;;42.72;39.28;;;6.90;87.10;;;;;;5054626;28;20203;-73
2022/03/31 06:16:40;;;;;;;42.42;39.05;;;6.90;86.80;;;;;;5054654;28;20193;-73
2022/03/31 06:19:09;;;;;;;40.40;37.20;;;7.00;87.00;;;;;;5054700;28;20545;-73
2022/03/31 06:21:36;;;;;;;43.17;39.58;;;7.10;86.40;;;;;;5054654;28;20206;-73
2022/03/31 06:24:03;;;;;;;42.03;38.53;;;7.10;86.40;;;;;;5054465;28;20229;-73
2022/03/31 06:26:31;;;;;;;42.28;39.08;;;7.00;86.50;;;;;;5054275;28;20307;-73
2022/03/31 06:28:58;;;;;;;42.63;39.00;;;7.00;86.10;;;;;;5054383;28;20202;-73
2022/03/31 06:31:26;;;;;;;40.75;37.83;;;6.90;86.60;;;;;;5054102;28;20693;-73
2022/03/31 06:33:54;;;;;;;43.20;39.97;;;7.00;87.90;;;;;;5054362;28;20218;-73
2022/03/31 06:36:21;;;;;;;42.63;39.15;;;7.10;88.20;;;;;;5054286;28;20200;-73
2022/03/31 06:38:48;;;;;;;41.97;38.70;;;7.10;86.30;;;;;;5054107;28;20289;-73
2022/03/31 06:41:15;;;;;;;43.30;39.78;;;7.00;86.50;;;;;;5053868;28;20361;-73
2022/03/31 06:43:44;;;;;;;43.72;40.20;;;7.00;86.30;;;;;;5054048;28;20632;-73
2022/03/31 06:46:12;;;;;;;43.00;39.20;;;7.00;86.30;;;;;;5054002;28;20200;-73
2022/03/31 06:48:43;;;;;;;45.22;41.22;;;7.00;86.50;;;;;;5053915;28;20202;-73
2022/03/31 06:51:11;;;;;;;43.25;39.65;;;7.20;85.90;;;;;;5053902;28;20204;-73
2022/03/31 06:53:39;;;;;;;43.22;39.72;;;7.10;85.60;;;;;;5053859;28;20409;-73
2022/03/31 06:56:06;;;;;;;42.45;38.88;;;7.20;85.90;;;;;;5053789;28;20199;-73
2022/03/31 06:58:34;;;;;;;44.10;40.42;;;7.20;86.00;;;;;;5053881;28;20252;-73
2022/03/31 07:01:01;;;;;;;46.20;42.05;;;7.40;85.20;;;;;;5053547;28;20199;-73
2022/03/31 07:03:28;;;;;;;42.13;38.70;;;7.40;85.30;;;;;;5053515;28;20655;-73
2022/03/31 07:05:56;;;;;;;44.35;40.55;;;7.50;85.40;;;;;;5053415;28;20198;-73
2022/03/31 07:08:23;;;;;;;43.13;39.53;;;7.50;84.70;;;;;;5053605;28;20225;-73
2022/03/31 07:10:51;;;;;;;44.63;40.92;;;7.70;84.80;;;;;;5053352;28;20281;-73
2022/03/31 07:13:18;;;;;;;47.35;43.80;;;7.80;84.00;;;;;;5053306;28;20300;-73
2022/03/31 07:15:45;;;;;;;42.80;39.53;;;8.00;84.00;;;;;;5053413;28;20195;-74
2022/03/31 07:18:12;;;;;;;45.50;41.90;;;8.10;83.10;;;;;;5053371;28;20195;-74
2022/03/31 07:20:39;;;;;;;44.58;40.85;;;8.10;82.10;;;;;;5053347;28;20298;-73
2022/03/31 07:23:07;;;;;;;44.38;40.78;;;8.30;81.70;;;;;;5053334;28;20314;-73
2022/03/31 07:25:34;;;;;;;43.50;40.20;;;8.10;81.70;;;;;;5053222;28;20198;-74
2022/03/31 07:28:01;;;;;;;44.17;40.45;;;8.00;82.50;;;;;;5053190;28;20217;-74
2022/03/31 07:30:28;;;;;;;41.63;38.35;;;8.10;82.40;;;;;;5052923;28;20239;-74
2022/03/31 07:32:57;;;;;;;44.67;41.03;;;8.20;82.00;;;;;;5052931;28;20219;-73
2022/03/31 07:35:26;;;;;;;45.28;41.80;;;8.30;81.50;;;;;;5053132;28;20621;-74
2022/03/31 07:37:54;;;;;;;46.25;42.70;;;8.20;81.50;;;;;;5052973;28;20206;-74
2022/03/31 07:40:24;;;;;;;43.30;40.10;;;8.30;81.70;;;;;;5052845;28;20230;-74
2022/03/31 07:42:52;;;;;;;44.28;40.88;;;8.30;81.90;;;;;;5052966;28;20299;-74
2022/03/31 07:45:20;;;;;;;44.58;41.05;;;8.30;82.80;;;;;;5053009;28;20556;-73
2022/03/31 07:47:47;;;;;;;44.58;41.17;;;8.50;82.40;;;;;;5052781;28;20220;-74
2022/03/31 07:50:17;;;;;;;44.88;41.33;;;8.60;81.40;;;;;;5052613;28;20198;-74
2022/03/31 07:52:44;;;;;;;43.55;40.25;;;8.70;81.40;;;;;;5052232;28;20216;-73
2022/03/31 07:55:14;;;;;;;42.95;39.65;;;8.90;80.40;;;;;;5052568;28;20203;-73
2022/03/31 07:57:42;;;;;;;41.50;38.22;;;8.90;80.10;;;;;;5052802;28;20254;-73
2022/03/31 08:00:12;;;;;;;43.38;39.92;;;8.80;79.50;;;;;;5052242;28;20206;-74
2022/03/31 08:02:40;;;;;;;45.08;41.80;;;8.80;82.10;;;;;;5052726;28;20696;-74
2022/03/31 08:05:09;;;;;;;41.10;38.10;;;8.70;82.50;;;;;;5052645;28;20216;-74
2022/03/31 08:07:36;;;;;;;42.00;38.80;;;8.70;80.80;;;;;;5052225;28;20684;-74
2022/03/31 08:10:03;;;;;;;45.10;41.60;;;8.90;80.30;;;;;;5052289;28;20201;-74
2022/03/31 08:12:30;;;;;;;44.42;41.13;;;8.90;80.10;;;;;;5052350;28;20230;-74
2022/03/31 08:14:58;;;;;;;44.33;40.72;;;9.10;79.40;;;;;;5052552;28;20197;-73
2022/03/31 08:17:25;;;;;;;45.30;41.72;;;9.10;78.70;;;;;;5052526;28;20589;-74
2022/03/31 08:19:52;;;;;;;44.60;41.10;;;9.00;79.50;;;;;;5052256;28;20290;-74
2022/03/31 08:22:19;;;;;;;43.13;39.55;;;8.90;79.70;;;;;;5052377;28;20308;-74
2022/03/31 08:24:47;;;;;;;45.20;41.70;;;8.70;80.30;;;;;;5052372;28;20246;-74
2022/03/31 08:27:14;;;;;;;45.83;42.00;;;8.70;80.30;;;;;;5052233;28;20226;-73
2022/03/31 08:29:41;;;;;;;44.58;41.20;;;8.70;80.30;;;;;;5052232;28;20289;-74
2022/03/31 08:32:10;;;;;;;42.92;39.83;;;8.80;80.40;;;;;;5052300;28;20301;-74
2022/03/31 08:34:37;;;;;;;47.22;43.58;;;8.80;81.40;;;;;;5052379;28;20200;-74
2022/03/31 08:37:07;;;;;;;42.92;39.53;;;8.90;80.50;;;;;;5052229;28;20199;-74
2022/03/31 08:39:33;;;;;;;43.78;40.25;;;8.90;80.30;;;;;;5052021;28;20201;-74
2022/03/31 08:42:00;;;;;;;43.60;39.90;;;9.10;79.60;;;;;;5052216;28;20198;-74
2022/03/31 08:44:29;;;;;;;44.75;41.30;;;9.20;79.10;;;;;;5052251;28;20195;-74
2022/03/31 08:46:56;;;;;;;44.95;41.45;;;9.10;79.00;;;;;;5052131;28;20237;-74
2022/03/31 08:49:25;;;;;;;44.38;40.50;;;9.30;78.90;;;;;;5052074;28;20675;-74
2022/03/31 08:51:52;;;;;;;44.28;40.90;;;9.40;78.30;;;;;;5051929;28;20225;-74
2022/03/31 08:54:19;;;;;;;44.65;41.35;;;9.30;78.40;;;;;;5052041;28;20198;-74
2022/03/31 08:56:46;;;;;;;46.10;42.40;;;9.30;78.60;;;;;;5052128;28;20289;-74
2022/03/31 08:59:13;;;;;;;43.90;40.55;;;9.40;78.50;;;;;;5051792;28;20199;-73
2022/03/31 09:01:40;;;;;;;43.13;39.67;;;9.70;77.50;;;;;;5051851;28;20289;-74
2022/03/31 09:04:19;;;;;;;45.90;42.10;;;10.00;76.60;;;;;;5051961;28;20216;-74
2022/03/31 09:06:49;;;;;;;45.33;41.33;;;10.00;76.10;;;;;;5055781;28;20295;-74
2022/03/31 09:09:17;;;;;;;42.10;38.70;;;10.20;75.90;;;;;;5055551;28;20658;-74
2022/03/31 09:11:46;;;;;;;45.53;41.73;;;10.40;74.60;;;;;;5055708;28;20552;-74
2022/03/31 09:14:14;;;;;;;46.38;42.72;;;10.30;75.40;;;;;;5055620;28;20469;-74
2022/03/31 09:16:41;;;;;;;43.80;40.23;;;10.40;75.90;;;;;;5055671;28;20198;-73
2022/03/31 09:19:10;;;;;;;43.87;40.53;;;10.50;75.50;;;;;;5055515;28;20937;-73
2022/03/31 09:21:51;;;;;;;42.40;38.87;;;10.60;74.40;;;;;;5055658;28;20457;-74
2022/03/31 09:24:20;;;;;;;45.65;42.15;;;10.50;74.30;;;;;;5055664;28;20455;-74
2022/03/31 09:26:48;;;;;;;42.93;39.50;;;10.40;74.60;;;;;;5055579;28;20198;-74
2022/03/31 09:29:17;;;;;;;44.63;40.80;;;10.30;75.20;;;;;;5055152;28;20502;-74
2022/03/31 09:31:44;;;;;;;43.10;39.77;;;10.30;75.20;;;;;;5055372;28;20194;-73
2022/03/31 09:34:13;;;;;;;44.90;41.30;;;10.30;74.90;;;;;;5055420;28;20453;-74
2022/03/31 09:36:44;;;;;;;44.20;40.60;;;10.30;75.50;;;;;;5055417;28;20511;-74
2022/03/31 09:39:16;;;;;;;45.07;41.50;;;10.70;74.70;;;;;;5055183;28;20452;-74
2022/03/31 09:41:47;;;;;;;43.03;39.67;;;11.00;73.80;;;;;;5055312;28;20549;-74
2022/03/31 09:44:16;;;;;;;43.33;39.97;;;11.00;73.20;;;;;;5055261;28;20508;-74
2022/03/31 09:46:44;;;;;;;41.40;37.90;;;11.20;73.00;;;;;;5055487;28;20455;-74
2022/03/31 09:49:16;;;;;;;43.50;39.90;;;11.50;72.10;;;;;;5054689;28;20476;-74
2022/03/31 09:51:44;;;;;;;41.17;37.87;;;11.60;72.10;;;;;;5055019;28;20454;-74
2022/03/31 09:54:13;;;;;;;43.77;40.10;;;11.90;70.50;;;;;;5055003;28;20451;-74
2022/03/31 09:56:41;;;;;;;39.90;36.80;;;12.00;70.40;;;;;;5054859;28;20455;-74
2022/03/31 09:59:09;;;;;;;45.00;41.37;;;12.00;71.70;;;;;;5054872;28;20494;-74
2022/03/31 10:01:38;;;;;;;42.83;39.60;;;12.20;69.90;;;;;;5054684;28;20471;-74
2022/03/31 10:04:06;;;;;;;45.03;41.73;;;12.60;68.80;;;;;;5054731;28;20484;-73
2022/03/31 10:06:34;;;;;;;41.33;38.10;;;12.70;68.40;;;;;;5054677;28;20539;-74
2022/03/31 10:09:03;;;;;;;46.23;42.53;;;12.90;67.70;;;;;;5054587;28;20486;-74
2022/03/31 10:11:35;;;;;;;45.00;41.67;;;13.00;67.40;;;;;;5054486;28;20872;-74
2022/03/31 10:14:17;;;;;;;43.23;40.00;;;13.00;67.00;;;;;;5054859;28;20490;-74
2022/03/31 10:16:47;;;;;;;43.37;39.90;;;12.80;67.80;;;;;;5054288;28;20452;-74
2022/03/31 10:19:26;;;;;;;42.77;39.67;;;13.00;67.10;;;;;;5054459;28;20533;-74
2022/03/31 10:21:58;;;;;;;41.30;38.07;;;13.10;67.00;;;;;;5054523;28;20455;-74
2022/03/31 10:24:44;;;;;;;43.43;40.13;;;13.00;67.50;;;;;;5054596;28;20459;-74
2022/03/31 10:27:25;;;;;;;44.10;40.30;;;13.20;66.90;;;;;;5054462;28;20786;-73
2022/03/31 10:29:52;;;;;;;44.67;40.90;;;13.00;67.00;;;;;;5054073;28;20813;-74
2022/03/31 10:32:21;;;;;;;45.27;41.43;;;12.60;68.00;;;;;;5054257;28;20483;-74
2022/03/31 10:34:49;;;;;;;44.87;41.23;;;12.20;69.70;;;;;;5054135;28;21011;-74
2022/03/31 10:37:19;;;;;;;44.80;41.00;;;12.20;69.50;;;;;;5054190;28;20483;-74
2022/03/31 10:39:56;;;;;;;43.83;40.20;;;12.10;70.10;;;;;;5054161;28;20465;-74
2022/03/31 10:42:24;;;;;;;43.03;39.50;;;12.10;70.30;;;;;;5054116;28;20478;-74
2022/03/31 10:45:06;;;;;;;45.07;40.73;;;12.30;70.20;;;;;;5053996;28;20513;-74
2022/03/31 10:47:34;;;;;;;44.80;41.00;;;12.50;69.90;;;;;;5053995;28;20455;-74
2022/03/31 10:50:02;;;;;;;43.57;40.07;;;12.50;69.10;;;;;;5053816;28;20458;-74
2022/03/31 10:52:29;;;;;;;45.07;41.40;;;12.50;69.50;;;;;;5053827;28;20475;-74
2022/03/31 10:55:09;;;;;;;43.33;39.47;;;12.40;70.10;;;;;;5053857;28;20455;-74
2022/03/31 10:57:44;;;;;;;43.00;39.60;;;12.30;70.20;;;;;;5053836;28;20545;-74
2022/03/31 11:00:14;;;;;;;43.13;39.50;;;12.60;69.50;;;;;;5053456;28;20461;-74
2022/03/31 11:02:44;;;;;;;43.53;40.10;;;12.90;68.80;;;;;;5053798;28;20529;-74
2022/03/31 11:05:11;;;;;;;42.80;39.40;;;12.90;68.50;;;;;;5053528;28;20491;-74
2022/03/31 11:07:38;;;;;;;43.20;39.90;;;13.00;68.20;;;;;;5053411;28;20838;-74
2022/03/31 11:10:10;;;;;;;44.60;41.03;;;13.10;67.90;;;;;;5053469;28;21012;-74
2022/03/31 11:12:37;;;;;;;45.60;42.07;;;13.00;68.00;;;;;;5053468;28;20534;-74
2022/03/31 11:15:08;;;;;;;45.37;41.60;;;13.00;68.50;;;;;;5053519;28;20452;-74
2022/03/31 11:17:36;;;;;;;44.70;40.53;;;12.80;68.80;;;;;;5053514;28;20452;-74
2022/03/31 11:20:14;;;;;;;43.57;40.07;;;12.60;70.10;;;;;;5053271;28;20456;-74
2022/03/31 11:22:47;;;;;;;44.40;40.80;;;12.60;69.80;;;;;;5053301;28;20558;-74
2022/03/31 11:25:15;;;;;;;44.57;40.93;;;12.80;69.00;;;;;;5053282;28;20451;-74
2022/03/31 11:27:43;;;;;;;45.40;41.63;;;12.60;69.60;;;;;;5052438;28;20457;-74
2022/03/31 11:30:14;;;;;;;45.00;41.43;;;12.50;70.00;;;;;;5053098;28;20462;-74
2022/03/31 11:32:42;;;;;;;47.57;43.40;;;12.70;69.80;;;;;;5053119;28;20475;-74
2022/03/31 11:35:15;;;;;;;43.37;39.90;;;12.70;69.60;;;;;;5053042;28;20451;-74
2022/03/31 11:37:46;;;;;;;44.63;41.13;;;12.60;69.90;;;;;;5053110;28;20819;-74
2022/03/31 11:40:14;;;;;;;46.03;42.33;;;12.60;70.10;;;;;;5052882;28;20462;-74
2022/03/31 11:42:45;;;;;;;44.93;40.97;;;12.60;70.00;;;;;;5052995;28;20483;-74
2022/03/31 11:45:23;;;;;;;45.60;41.90;;;12.30;71.00;;;;;;5052780;28;20933;-74
2022/03/31 11:47:56;;;;;;;46.80;42.80;;;12.30;71.50;;;;;;5052768;28;20455;-74
2022/03/31 11:50:24;;;;;;;46.77;42.87;;;12.40;71.00;;;;;;5052779;28;20452;-74
2022/03/31 11:52:52;;;;;;;46.53;42.63;;;12.50;70.90;;;;;;5052819;28;20829;-74
2022/03/31 11:55:20;;;;;;;44.90;41.30;;;12.40;71.00;;;;;;5052723;28;20538;-74
2022/03/31 11:57:55;;;;;;;46.23;42.57;;;12.40;71.20;;;;;;5052678;28;20462;-74
2022/03/31 12:00:26;;;;;;;43.60;39.87;;;12.40;71.10;;;;;;5052398;28;20455;-74
2022/03/31 12:03:01;;;;;;;44.93;41.27;;;12.50;70.80;;;;;;5052663;28;20475;-74
2022/03/31 12:05:29;;;;;;;44.00;40.40;;;12.50;70.80;;;;;;5052423;28;20447;-74
2022/03/31 12:07:57;;;;;;;43.90;40.20;;;12.50;70.90;;;;;;5052584;28;20466;-74
2022/03/31 12:10:24;;;;;;;47.03;42.93;;;12.70;70.40;;;;;;5052352;28;20893;-74
2022/03/31 12:12:53;;;;;;;45.70;41.87;;;12.70;70.10;;;;;;5052424;28;20589;-74
2022/03/31 12:15:22;;;;;;;44.27;40.47;;;12.60;70.30;;;;;;5052460;28;20526;-74
2022/03/31 12:17:59;;;;;;;45.93;41.90;;;12.70;70.40;;;;;;5052346;28;20466;-74
2022/03/31 12:20:26;;;;;;;44.77;41.17;;;12.40;71.20;;;;;;5052236;28;20462;-74
2022/03/31 12:22:53;;;;;;;44.33;40.87;;;12.20;72.30;;;;;;5052378;28;20472;-74
2022/03/31 12:25:31;;;;;;;44.00;40.60;;;12.40;72.00;;;;;;5052353;28;20543;-74
2022/03/31 12:28:00;;;;;;;45.73;41.93;;;12.70;70.90;;;;;;5052375;28;20538;-74
2022/03/31 12:30:27;;;;;;;45.93;42.33;;;12.80;70.60;;;;;;5052064;28;20509;-74
2022/03/31 12:32:55;;;;;;;45.33;41.70;;;12.80;70.40;;;;;;5052330;28;20475;-74
2022/03/31 12:35:33;;;;;;;44.23;40.70;;;13.10;70.00;;;;;;5052321;28;20460;-74
2022/03/31 12:38:00;;;;;;;42.73;39.27;;;13.20;69.20;;;;;;5052254;28;20929;-74
2022/03/31 12:40:28;;;;;;;43.80;40.43;;;13.10;69.60;;;;;;5056163;28;20454;-74
2022/03/31 12:42:57;;;;;;;43.87;40.37;;;12.90;69.90;;;;;;5056318;28;20478;-74
2022/03/31 12:45:24;;;;;;;45.00;41.10;;;12.80;70.10;;;;;;5056255;28;20509;-74
2022/03/31 12:47:51;;;;;;;43.93;40.60;;;12.80;70.20;;;;;;5056281;28;20451;-73